createdAt,value
2022-10-04T00:00:40.837Z,8.38
2022-10-04T00:01:59.654Z,8.41
2022-10-04T00:03:12.549Z,8.39
2022-10-04T00:04:25.463Z,8.39
2022-10-04T00:05:31.494Z,8.40
2022-10-04T00:06:37.815Z,8.40
2022-10-04T00:07:49.410Z,8.43
2022-10-04T00:08:56.284Z,8.43
2022-10-04T00:10:05.749Z,8.41
2022-10-04T00:11:15.507Z,8.41
2022-10-04T00:12:22.418Z,8.40
2022-10-04T00:13:28.130Z,8.40
2022-10-04T00:14:35.052Z,8.41
2022-10-04T00:15:40.202Z,8.39
2022-10-04T00:16:44.452Z,8.33
2022-10-04T00:17:54.194Z,8.35
2022-10-04T00:19:04.327Z,8.35
2022-10-04T00:20:27.633Z,8.35
2022-10-04T00:21:53.810Z,8.34
2022-10-04T00:23:23.085Z,8.32
2022-10-04T00:24:29.453Z,8.31
2022-10-04T00:25:37.119Z,8.29
2022-10-04T00:26:45.606Z,8.28
2022-10-04T00:28:15.034Z,8.28
2022-10-04T00:29:29.555Z,8.29
2022-10-04T00:30:40.561Z,8.28
2022-10-04T00:32:09.928Z,8.25
2022-10-04T00:33:16.820Z,8.20
2022-10-04T00:34:29.971Z,8.24
2022-10-04T00:35:33.990Z,8.26
2022-10-04T00:36:47.542Z,8.20
2022-10-04T00:38:09.369Z,8.24
2022-10-04T00:39:16.315Z,8.25
2022-10-04T00:40:27.542Z,8.25
2022-10-04T00:41:50.031Z,8.23
2022-10-04T00:43:04.243Z,8.26
2022-10-04T00:44:11.178Z,8.27
2022-10-04T00:45:24.115Z,8.29
2022-10-04T00:46:31.533Z,8.30
2022-10-04T00:47:50.449Z,8.29
2022-10-04T00:49:03.873Z,8.30
2022-10-04T00:50:22.380Z,8.31
2022-10-04T00:51:32.205Z,8.33
2022-10-04T00:52:39.051Z,8.33
2022-10-04T00:54:00.522Z,8.35
2022-10-04T00:55:07.489Z,8.35
2022-10-04T00:56:14.368Z,8.34
2022-10-04T00:57:21.258Z,8.33
2022-10-04T00:58:30.561Z,8.34
2022-10-04T00:59:43.167Z,8.34
2022-10-04T01:00:49.191Z,8.32
2022-10-04T01:02:05.019Z,8.32
2022-10-04T01:03:14.429Z,8.31
2022-10-04T01:04:24.325Z,8.31
2022-10-04T01:05:34.092Z,8.33
2022-10-04T01:06:39.460Z,8.31
2022-10-04T01:07:56.223Z,8.33
2022-10-04T01:09:03.102Z,8.33
2022-10-04T01:10:16.592Z,8.33
2022-10-04T01:11:30.717Z,8.32
2022-10-04T01:12:46.260Z,8.31
2022-10-04T01:14:00.371Z,8.30
2022-10-04T01:15:16.066Z,8.33
2022-10-04T01:16:26.905Z,8.33
2022-10-04T01:17:31.028Z,8.32
2022-10-04T01:18:36.547Z,8.32
2022-10-04T01:19:43.521Z,8.32
2022-10-04T01:21:13.104Z,8.32
2022-10-04T01:22:32.104Z,8.33
2022-10-04T01:23:40.783Z,8.35
2022-10-04T01:24:46.360Z,8.35
2022-10-04T01:25:52.317Z,8.32
2022-10-04T01:26:57.852Z,8.32
2022-10-04T01:28:01.936Z,8.32
2022-10-04T01:29:17.704Z,8.32
2022-10-04T01:30:23.430Z,8.32
2022-10-04T01:31:34.838Z,8.34
2022-10-04T01:32:40.346Z,8.33
2022-10-04T01:33:44.514Z,8.35
2022-10-04T01:34:48.604Z,8.35
2022-10-04T01:35:52.801Z,8.35
2022-10-04T01:36:59.437Z,8.35
2022-10-04T01:38:05.456Z,8.35
2022-10-04T01:39:09.555Z,8.36
2022-10-04T01:40:13.546Z,8.39
2022-10-04T01:41:20.596Z,8.38
2022-10-04T01:42:29.133Z,8.41
2022-10-04T01:43:35.977Z,8.40
2022-10-04T01:44:42.972Z,8.36
2022-10-04T01:45:49.824Z,8.38
2022-10-04T01:46:57.100Z,8.40
2022-10-04T01:48:03.518Z,8.41
2022-10-04T01:49:14.921Z,8.43
2022-10-04T01:50:30.528Z,8.43
2022-10-04T01:51:41.922Z,8.43
2022-10-04T01:52:51.367Z,8.43
2022-10-04T01:54:02.477Z,8.43
2022-10-04T01:55:18.656Z,8.39
2022-10-04T01:56:30.239Z,8.39
2022-10-04T01:57:42.565Z,8.38
2022-10-04T01:58:49.411Z,8.38
2022-10-04T02:00:01.870Z,8.38
2022-10-04T02:01:08.835Z,8.36
2022-10-04T02:02:39.888Z,8.36
2022-10-04T02:04:01.747Z,8.37
2022-10-04T02:05:08.895Z,8.36
2022-10-04T02:07:29.991Z,8.36
2022-10-04T02:11:56.964Z,8.48
2022-10-04T02:13:04.323Z,8.34
2022-10-04T02:14:13.834Z,8.38
2022-10-04T02:15:22.891Z,8.40
2022-10-04T02:16:27.429Z,8.42
2022-10-04T02:17:35.728Z,8.43
2022-10-04T02:18:42.925Z,8.43
2022-10-04T02:19:47.783Z,8.45
2022-10-04T02:20:53.839Z,8.44
2022-10-04T02:22:00.697Z,8.44
2022-10-04T02:23:04.386Z,8.25
2022-10-04T02:24:09.667Z,8.42
2022-10-04T02:25:15.847Z,8.42
2022-10-04T02:37:12.136Z,8.40
2022-10-04T02:37:57.940Z,8.38
2022-10-04T02:39:11.976Z,8.39
2022-10-04T02:40:18.917Z,8.39
2022-10-04T02:41:29.360Z,8.39
2022-10-04T02:42:57.497Z,8.42
2022-10-04T02:44:12.752Z,8.43
2022-10-04T02:45:41.520Z,8.44
2022-10-04T02:46:58.598Z,8.45
2022-10-04T02:48:06.915Z,8.43
2022-10-04T02:49:28.759Z,8.41
2022-10-04T02:50:38.719Z,8.40
2022-10-04T02:53:24.245Z,8.37
2022-10-04T02:54:45.824Z,8.38
2022-10-04T02:55:51.719Z,8.37
2022-10-04T02:57:01.254Z,8.37
2022-10-04T02:58:09.867Z,8.37
2022-10-04T02:59:18.120Z,8.38
2022-10-04T03:00:29.829Z,8.39
2022-10-04T03:01:48.384Z,8.40
2022-10-04T03:03:13.355Z,8.40
2022-10-04T03:04:18.916Z,8.36
2022-10-04T03:05:22.751Z,8.36
2022-10-04T03:06:29.695Z,8.38
2022-10-04T03:07:36.462Z,8.32
2022-10-04T03:08:49.253Z,8.35
2022-10-04T03:09:55.402Z,8.35
2022-10-04T03:11:00.362Z,8.40
2022-10-04T03:12:08.132Z,8.41
2022-10-04T03:13:14.979Z,8.41
2022-10-04T03:14:21.850Z,8.41
2022-10-04T03:15:25.888Z,8.40
2022-10-04T03:16:36.810Z,8.43
2022-10-04T03:17:44.577Z,8.43
2022-10-04T03:18:50.353Z,8.43
2022-10-04T03:19:56.687Z,8.41
2022-10-04T03:21:05.643Z,8.43
2022-10-04T03:22:13.665Z,8.42
2022-10-04T03:23:21.522Z,8.42
2022-10-04T03:24:32.949Z,8.45
2022-10-04T03:25:44.733Z,8.47
2022-10-04T03:26:57.147Z,8.47
2022-10-04T03:28:03.297Z,8.50
2022-10-04T03:29:10.703Z,8.50
2022-10-04T03:30:21.430Z,8.49
2022-10-04T03:31:31.846Z,8.50
2022-10-04T03:32:36.109Z,8.51
2022-10-04T03:33:41.480Z,8.53
2022-10-04T03:35:07.557Z,8.54
2022-10-04T03:36:14.622Z,8.56
2022-10-04T03:37:19.204Z,8.56
2022-10-04T03:38:30.372Z,8.58
2022-10-04T03:39:45.505Z,8.57
2022-10-04T04:26:50.923Z,8.12
2022-10-04T04:28:03.850Z,8.14
2022-10-04T04:29:10.901Z,8.18
2022-10-04T04:30:20.761Z,8.20
2022-10-04T04:31:30.366Z,8.24
2022-10-04T04:32:43.473Z,8.27
2022-10-04T04:34:04.098Z,8.25
2022-10-04T04:35:10.393Z,8.29
2022-10-04T04:36:17.039Z,8.28
2022-10-04T04:37:21.361Z,8.28
2022-10-04T04:38:26.547Z,8.30
2022-10-04T04:39:32.351Z,8.32
2022-10-04T04:40:37.416Z,8.32
2022-10-04T04:41:49.512Z,8.32
2022-10-04T04:42:52.950Z,8.34
2022-10-04T04:43:57.291Z,8.39
2022-10-04T04:45:09.234Z,8.40
2022-10-04T04:46:26.993Z,8.40
2022-10-04T04:47:34.654Z,8.43
2022-10-04T04:48:38.869Z,8.44
2022-10-04T04:49:42.882Z,8.45
2022-10-04T04:50:58.014Z,8.46
2022-10-04T04:52:03.089Z,8.44
2022-10-04T04:53:14.718Z,8.49
2022-10-04T04:54:24.116Z,8.50
2022-10-04T04:55:50.104Z,8.50
2022-10-04T04:56:38.302Z,8.50
2022-10-04T04:57:42.974Z,8.52
2022-10-04T04:58:49.570Z,8.55
2022-10-04T04:59:56.495Z,8.58
2022-10-04T05:01:06.010Z,8.58
2022-10-04T05:02:15.517Z,8.59
2022-10-04T05:03:21.562Z,8.63
2022-10-04T05:04:25.482Z,8.66
2022-10-04T05:05:33.536Z,8.66
2022-10-04T05:06:40.366Z,8.66
2022-10-04T05:07:44.343Z,8.64
2022-10-04T05:08:50.119Z,8.69
2022-10-04T05:09:57.828Z,8.65
2022-10-04T05:11:14.419Z,8.65
2022-10-04T05:12:26.514Z,8.55
2022-10-04T05:13:41.600Z,8.69
2022-10-04T05:14:51.019Z,8.69
2022-10-04T05:15:57.259Z,8.75
2022-10-04T05:17:01.692Z,8.75
2022-10-04T05:18:26.767Z,8.77
2022-10-04T05:19:39.454Z,8.80
2022-10-04T05:20:48.089Z,8.81
2022-10-04T05:21:54.891Z,8.81
2022-10-04T05:22:59.897Z,8.89
2022-10-04T05:24:24.728Z,8.91
2022-10-04T05:25:33.533Z,8.92
2022-10-04T05:26:37.663Z,8.93
2022-10-04T05:27:44.701Z,8.93
2022-10-04T05:28:48.727Z,8.97
2022-10-04T05:30:10.691Z,8.99
2022-10-04T05:31:34.040Z,9.00
2022-10-04T05:32:58.873Z,9.05
2022-10-04T05:34:04.585Z,9.10
2022-10-04T05:35:17.516Z,9.11
2022-10-04T05:36:42.805Z,9.14
2022-10-04T05:37:52.522Z,9.16
2022-10-04T05:39:06.549Z,9.16
2022-10-04T05:40:18.228Z,9.18
2022-10-04T05:41:31.352Z,9.18
2022-10-04T05:42:43.083Z,9.19
2022-10-04T05:43:51.807Z,9.24
2022-10-04T05:44:58.379Z,9.24
2022-10-04T05:46:26.182Z,9.24
2022-10-04T05:47:31.077Z,9.27
2022-10-04T05:48:36.264Z,9.27
2022-10-04T05:49:44.821Z,9.31
2022-10-04T05:50:49.000Z,9.34
2022-10-04T05:51:58.570Z,9.37
2022-10-04T05:53:32.502Z,9.39
2022-10-04T05:54:36.839Z,9.39
2022-10-04T05:55:55.616Z,9.48
2022-10-04T05:57:21.910Z,9.48
2022-10-04T05:58:48.119Z,9.51
2022-10-04T06:00:06.872Z,9.51
2022-10-04T06:01:22.376Z,9.60
2022-10-04T06:02:48.709Z,9.63
2022-10-04T06:04:27.045Z,9.69
2022-10-04T06:05:53.808Z,9.78
2022-10-04T06:07:00.715Z,9.81
2022-10-04T06:08:24.152Z,9.82
2022-10-04T06:09:49.008Z,9.76
2022-10-04T06:11:05.100Z,9.71
2022-10-04T06:12:17.215Z,9.73
2022-10-04T06:13:45.334Z,9.70
2022-10-04T06:14:55.037Z,9.68
2022-10-04T06:16:27.636Z,9.71
2022-10-04T06:17:53.776Z,9.71
2022-10-04T06:19:26.497Z,9.79
2022-10-04T06:21:06.445Z,9.79
2022-10-04T06:22:14.958Z,9.86
2022-10-04T06:23:22.367Z,9.94
2022-10-04T06:24:31.676Z,10.01
2022-10-04T06:25:47.387Z,10.09
2022-10-04T06:27:03.265Z,10.15
2022-10-04T06:28:15.796Z,10.19
2022-10-04T06:29:25.584Z,10.25
2022-10-04T06:30:32.543Z,10.31
2022-10-04T06:31:45.605Z,10.43
2022-10-04T06:33:08.207Z,10.48
2022-10-04T06:34:28.492Z,10.63
2022-10-04T06:35:35.324Z,10.73
2022-10-04T06:36:59.827Z,10.79
2022-10-04T06:38:26.431Z,10.89
2022-10-04T06:39:33.280Z,10.97
2022-10-04T06:40:49.043Z,11.00
2022-10-04T06:42:01.770Z,11.00
2022-10-04T06:43:23.431Z,11.06
2022-10-04T06:44:34.241Z,11.04
2022-10-04T06:46:03.893Z,11.03
2022-10-04T06:47:22.873Z,11.03
2022-10-04T06:48:38.740Z,11.03
2022-10-04T06:49:48.290Z,11.03
2022-10-04T06:51:01.295Z,11.00
2022-10-04T06:52:26.226Z,10.96
2022-10-04T06:53:55.909Z,10.96
2022-10-04T06:55:02.610Z,10.95
2022-10-04T06:56:29.088Z,10.93
2022-10-04T06:58:08.914Z,10.93
2022-10-04T06:59:27.871Z,11.02
2022-10-04T07:00:36.422Z,11.08
2022-10-04T07:01:52.823Z,11.08
2022-10-04T07:03:17.841Z,11.11
2022-10-04T07:05:07.546Z,11.08
2022-10-04T07:06:06.535Z,11.10
2022-10-04T07:07:22.546Z,11.08
2022-10-04T07:08:44.436Z,11.07
2022-10-04T07:09:50.023Z,11.14
2022-10-04T07:10:56.965Z,11.14
2022-10-04T07:12:03.899Z,11.25
2022-10-04T07:13:10.801Z,11.30
2022-10-04T07:14:42.603Z,11.34
2022-10-04T07:15:31.389Z,11.39
2022-10-04T07:16:53.379Z,11.39
2022-10-04T07:18:02.141Z,11.45
2022-10-04T07:19:17.882Z,11.58
2022-10-04T07:20:24.927Z,11.56
2022-10-04T07:21:33.667Z,11.65
2022-10-04T07:22:43.392Z,11.65
2022-10-04T07:23:56.105Z,11.80
2022-10-04T07:40:41.120Z,11.71
2022-10-04T07:41:25.980Z,11.79
2022-10-04T07:42:40.901Z,11.84
2022-10-04T07:43:57.493Z,11.89
2022-10-04T07:46:55.688Z,11.92
2022-10-04T07:52:11.383Z,11.70
2022-10-04T07:53:21.037Z,11.54
2022-10-04T07:54:55.839Z,11.51
2022-10-04T07:56:06.880Z,11.49
2022-10-04T07:57:34.720Z,11.47
2022-10-04T08:00:06.055Z,11.55
2022-10-04T08:01:40.320Z,11.55
2022-10-04T08:15:23.700Z,11.44
2022-10-04T08:16:30.627Z,11.48
2022-10-04T08:17:40.633Z,11.47
2022-10-04T08:19:03.832Z,11.50
2022-10-04T08:20:19.859Z,11.55
2022-10-04T08:21:28.936Z,11.55
2022-10-04T08:22:38.428Z,11.49
2022-10-04T08:23:59.992Z,11.55
2022-10-04T08:25:15.657Z,11.55
2022-10-04T08:26:25.043Z,11.60
2022-10-04T08:27:46.901Z,11.60
2022-10-04T08:30:41.581Z,11.66
2022-10-04T08:32:10.579Z,11.61
2022-10-04T08:33:37.267Z,11.60
2022-10-04T08:34:52.881Z,11.60
2022-10-04T08:36:19.275Z,11.73
2022-10-04T08:37:42.185Z,11.79
2022-10-04T08:38:52.060Z,11.80
2022-10-04T08:40:21.873Z,11.80
2022-10-04T08:42:02.054Z,11.82
2022-10-04T08:43:20.739Z,11.82
2022-10-04T08:44:44.028Z,11.81
2022-10-04T08:45:59.574Z,11.73
2022-10-04T08:47:30.798Z,11.78
2022-10-04T08:49:14.848Z,11.77
2022-10-04T08:50:44.521Z,11.80
2022-10-04T08:52:06.157Z,11.78
2022-10-04T08:53:32.584Z,11.74
2022-10-04T08:54:58.751Z,11.74
2022-10-04T08:56:17.890Z,11.61
2022-10-04T08:57:50.332Z,11.57
2022-10-04T08:59:02.729Z,11.55
2022-10-04T09:00:12.427Z,11.55
2022-10-04T09:01:27.745Z,11.28
2022-10-04T09:02:45.742Z,11.55
2022-10-04T09:04:18.091Z,11.56
2022-10-04T09:05:38.235Z,11.56
2022-10-04T09:06:57.778Z,11.56
2022-10-04T09:08:08.161Z,11.58
2022-10-04T09:09:36.702Z,11.58
2022-10-04T09:10:52.257Z,11.55
2022-10-04T09:12:07.795Z,11.55
2022-10-04T09:13:17.502Z,11.59
2022-10-04T09:14:49.840Z,11.56
2022-10-04T09:15:55.461Z,11.55
2022-10-04T09:17:08.269Z,11.55
2022-10-04T09:18:18.076Z,11.45
2022-10-04T09:19:45.782Z,11.45
2022-10-04T09:21:04.699Z,11.43
2022-10-04T09:22:29.652Z,11.43
2022-10-04T09:23:36.583Z,11.41
2022-10-04T09:24:49.453Z,10.68
2022-10-04T09:26:18.557Z,11.43
2022-10-04T09:27:55.096Z,11.28
2022-10-04T09:29:03.933Z,11.28
2022-10-04T09:30:08.208Z,11.47
2022-10-04T09:31:30.067Z,11.47
2022-10-04T09:32:41.218Z,11.48
2022-10-04T09:33:53.833Z,11.45
2022-10-04T09:35:12.848Z,11.43
2022-10-04T09:36:48.425Z,11.43
2022-10-04T09:38:03.902Z,11.41
2022-10-04T09:39:33.917Z,11.41
2022-10-04T09:40:57.587Z,11.43
2022-10-04T09:42:22.382Z,11.43
2022-10-04T09:43:30.972Z,11.41
2022-10-04T09:44:45.125Z,11.41
2022-10-04T09:46:09.965Z,11.39
2022-10-04T09:47:47.485Z,11.37
2022-10-04T09:48:57.955Z,11.36
2022-10-04T09:50:27.282Z,11.36
2022-10-04T09:52:01.708Z,11.37
2022-10-04T09:53:14.894Z,11.40
2022-10-04T09:54:49.683Z,11.46
2022-10-04T09:56:12.341Z,11.57
2022-10-04T09:57:26.715Z,11.65
2022-10-04T09:58:42.599Z,11.65
2022-10-04T09:59:58.525Z,11.83
2022-10-04T10:01:39.842Z,11.92
2022-10-04T10:03:18.563Z,12.00
2022-10-04T10:04:35.469Z,12.13
2022-10-04T10:05:45.301Z,12.16
2022-10-04T10:07:16.017Z,12.16
2022-10-04T10:08:56.170Z,12.22
2022-10-04T10:10:08.601Z,12.37
2022-10-04T10:11:31.790Z,12.37
2022-10-04T10:13:04.177Z,12.45
2022-10-04T10:14:31.826Z,12.49
2022-10-04T10:16:01.646Z,12.50
2022-10-04T10:17:19.913Z,12.50
2022-10-04T10:18:38.650Z,12.50
2022-10-04T10:20:06.766Z,12.52
2022-10-04T10:21:42.213Z,12.56
2022-10-04T10:22:55.544Z,12.60
2022-10-04T10:24:24.844Z,12.62
2022-10-04T10:25:37.778Z,12.62
2022-10-04T10:27:08.883Z,12.64
2022-10-04T10:28:48.949Z,12.73
2022-10-04T10:30:04.978Z,12.75
2022-10-04T10:31:24.106Z,12.74
2022-10-04T10:32:42.714Z,12.74
2022-10-04T10:34:06.110Z,12.73
2022-10-04T10:35:21.708Z,12.73
2022-10-04T10:36:44.127Z,12.81
2022-10-04T10:38:13.728Z,12.82
2022-10-04T10:39:38.733Z,12.82
2022-10-04T10:41:00.668Z,12.80
2022-10-04T10:42:13.606Z,12.76
2022-10-04T10:43:26.593Z,12.74
2022-10-04T10:44:45.371Z,12.69
2022-10-04T10:47:34.712Z,12.61
2022-10-04T10:49:52.598Z,12.50
2022-10-04T10:50:37.661Z,12.30
2022-10-04T10:52:03.572Z,12.14
2022-10-04T10:53:32.636Z,12.07
2022-10-04T10:55:02.149Z,12.07
2022-10-04T10:56:11.632Z,11.97
2022-10-04T11:00:01.872Z,12.03
2022-10-04T11:00:50.077Z,11.74
2022-10-04T11:02:19.621Z,11.74
2022-10-04T11:04:00.151Z,11.70
2022-10-04T11:05:22.094Z,11.66
2022-10-04T11:06:51.393Z,11.60
2022-10-04T11:08:24.344Z,11.58
2022-10-04T11:09:41.653Z,11.58
2022-10-04T11:11:01.756Z,11.44
2022-10-04T11:12:08.728Z,11.41
2022-10-04T11:13:39.162Z,11.41
2022-10-04T11:14:55.487Z,11.41
2022-10-04T11:16:21.846Z,11.38
2022-10-04T11:17:37.745Z,11.33
2022-10-04T11:19:06.817Z,11.29
2022-10-04T11:20:25.956Z,11.29
2022-10-04T11:22:02.938Z,11.15
2022-10-04T11:23:12.855Z,11.19
2022-10-04T11:24:43.631Z,11.16
2022-10-04T11:26:19.017Z,11.17
2022-10-04T11:27:49.390Z,11.23
2022-10-04T11:29:16.028Z,11.30
2022-10-04T11:30:25.657Z,11.39
2022-10-04T11:31:52.158Z,11.39
2022-10-04T11:33:27.447Z,11.57
2022-10-04T11:34:55.449Z,11.71
2022-10-04T11:36:36.729Z,11.71
2022-10-04T11:37:46.288Z,11.71
2022-10-04T11:39:10.926Z,11.86
2022-10-04T11:40:27.016Z,11.90
2022-10-04T11:41:49.252Z,11.88
2022-10-04T11:43:16.953Z,11.93
2022-10-04T11:44:41.879Z,12.01
2022-10-04T11:45:54.806Z,11.98
2022-10-04T11:47:10.604Z,11.97
2022-10-04T11:48:40.047Z,11.90
2022-10-04T11:49:47.000Z,11.92
2022-10-04T11:51:19.289Z,11.92
2022-10-04T11:52:39.400Z,11.91
2022-10-04T11:54:04.426Z,11.93
2022-10-04T11:55:27.651Z,11.93
2022-10-04T11:56:37.109Z,11.92
2022-10-04T11:57:49.103Z,11.92
2022-10-04T11:58:59.176Z,11.94
2022-10-04T12:00:09.134Z,11.96
2022-10-04T12:03:01.560Z,11.98
2022-10-04T12:04:14.394Z,11.99
2022-10-04T12:05:26.746Z,12.02
2022-10-04T12:06:52.602Z,11.98
2022-10-04T12:08:17.383Z,11.99
2022-10-04T12:09:32.365Z,11.99
2022-10-04T12:10:39.254Z,11.97
2022-10-04T12:12:06.980Z,11.98
2022-10-04T12:13:29.177Z,11.98
2022-10-04T12:14:36.148Z,12.01
2022-10-04T12:16:02.600Z,12.01
2022-10-04T12:17:28.944Z,11.99
2022-10-04T12:19:03.004Z,12.04
2022-10-04T12:20:19.076Z,12.06
2022-10-04T12:21:49.548Z,12.08
2022-10-04T12:23:10.168Z,12.12
2022-10-04T12:24:25.744Z,12.11
2022-10-04T12:25:35.174Z,12.11
2022-10-04T12:26:42.719Z,12.06
2022-10-04T12:28:00.277Z,12.11
2022-10-04T12:29:29.355Z,12.17
2022-10-04T12:31:00.465Z,12.23
2022-10-04T12:32:23.429Z,12.21
2022-10-04T12:33:37.650Z,12.31
2022-10-04T12:34:53.593Z,12.27
2022-10-04T12:36:06.108Z,12.31
2022-10-04T12:37:27.817Z,12.31
2022-10-04T12:39:00.259Z,12.31
2022-10-04T12:40:27.857Z,12.31
2022-10-04T12:41:58.611Z,12.31
2022-10-04T12:43:21.910Z,12.32
2022-10-04T12:44:39.157Z,12.27
2022-10-04T12:45:57.826Z,12.25
2022-10-04T12:47:09.819Z,12.26
2022-10-04T12:48:33.083Z,12.23
2022-10-04T12:49:44.677Z,12.20
2022-10-04T12:50:54.140Z,12.16
2022-10-04T12:52:11.294Z,12.20
2022-10-04T12:53:34.561Z,12.20
2022-10-04T12:54:47.017Z,12.21
2022-10-04T12:56:02.355Z,12.23
2022-10-04T12:57:16.483Z,12.26
2022-10-04T12:58:48.813Z,12.27
2022-10-04T12:59:57.153Z,12.28
2022-10-04T13:01:19.164Z,12.28
2022-10-04T13:02:46.969Z,12.30
2022-10-04T13:04:07.250Z,12.33
2022-10-04T13:05:48.927Z,12.33
2022-10-04T13:06:55.827Z,12.29
2022-10-04T13:08:05.710Z,12.28
2022-10-04T13:09:25.854Z,12.25
2022-10-04T13:10:49.234Z,12.26
2022-10-04T13:12:16.903Z,12.27
2022-10-04T13:13:30.050Z,12.23
2022-10-04T13:14:36.938Z,12.22
2022-10-04T13:17:29.661Z,12.15
2022-10-04T13:18:44.556Z,12.20
2022-10-04T13:20:00.673Z,12.18
2022-10-04T13:21:10.213Z,12.18
2022-10-04T13:22:55.409Z,12.12
2022-10-04T13:24:03.198Z,12.08
2022-10-04T13:25:37.104Z,12.02
2022-10-04T13:26:57.222Z,11.95
2022-10-04T13:28:29.910Z,11.91
2022-10-04T13:29:40.660Z,11.88
2022-10-04T13:30:54.871Z,11.85
2022-10-04T13:32:10.769Z,11.86
2022-10-04T13:33:32.331Z,11.83
2022-10-04T13:34:44.943Z,11.83
2022-10-04T13:36:03.884Z,11.80
2022-10-04T13:37:19.321Z,11.81
2022-10-04T13:38:33.074Z,11.77
2022-10-04T13:39:48.565Z,11.78
2022-10-04T13:41:10.440Z,11.77
2022-10-04T13:43:54.469Z,11.72
2022-10-04T13:45:05.894Z,11.73
2022-10-04T13:46:27.639Z,11.73
2022-10-04T13:47:55.485Z,11.71
2022-10-04T13:49:20.085Z,11.71
2022-10-04T13:50:44.939Z,11.70
2022-10-04T13:51:51.836Z,11.70
2022-10-04T13:53:21.087Z,11.66
2022-10-04T13:54:36.780Z,11.66
2022-10-04T13:55:49.232Z,11.60
2022-10-04T13:57:07.772Z,11.60
2022-10-04T13:58:23.189Z,11.58
2022-10-04T14:15:35.025Z,11.36
2022-10-04T14:16:59.551Z,11.36
2022-10-04T14:18:31.726Z,11.36
2022-10-04T14:20:13.925Z,11.28
2022-10-04T14:21:55.698Z,11.27
2022-10-04T14:23:08.703Z,11.23
2022-10-04T14:24:21.601Z,11.20
2022-10-04T14:25:50.458Z,11.16
2022-10-04T14:27:02.875Z,11.15
2022-10-04T14:28:29.172Z,11.10
2022-10-04T14:29:56.806Z,11.07
2022-10-04T14:31:25.581Z,11.07
2022-10-04T14:32:50.858Z,10.93
2022-10-04T14:34:03.572Z,10.90
2022-10-04T14:35:13.259Z,10.88
2022-10-04T14:36:38.458Z,10.87
2022-10-04T14:39:26.601Z,10.79
2022-10-04T14:40:48.935Z,10.82
2022-10-04T14:42:15.441Z,10.77
2022-10-04T14:43:37.375Z,10.77
2022-10-04T14:45:04.153Z,10.71
2022-10-04T14:46:18.633Z,10.70
2022-10-04T14:47:45.667Z,10.66
2022-10-04T14:49:02.256Z,10.66
2022-10-04T14:50:25.646Z,10.63
2022-10-04T14:51:38.317Z,10.57
2022-10-04T14:52:53.967Z,10.55
2022-10-04T14:54:21.733Z,10.51
2022-10-04T14:55:52.865Z,10.49
2022-10-04T14:57:08.551Z,10.49
2022-10-04T14:58:44.293Z,10.48
2022-10-04T15:00:10.109Z,10.45
2022-10-04T15:01:28.196Z,10.44
2022-10-04T15:02:39.232Z,10.40
2022-10-04T15:04:14.473Z,10.37
2022-10-04T15:05:42.673Z,10.36
2022-10-04T15:06:52.749Z,10.35
2022-10-04T15:08:24.524Z,10.32
2022-10-04T15:09:44.894Z,10.14
2022-10-04T15:11:06.681Z,10.26
2022-10-04T15:12:45.838Z,10.23
2022-10-04T15:13:38.729Z,10.23
2022-10-04T15:15:05.235Z,10.19
2022-10-04T15:16:15.277Z,10.15
2022-10-04T15:17:31.091Z,10.15
2022-10-04T15:18:46.420Z,10.14
2022-10-04T15:20:23.208Z,10.15
2022-10-04T15:21:40.474Z,10.14
2022-10-04T15:22:52.317Z,10.13
2022-10-04T15:24:01.848Z,10.12
2022-10-04T15:25:30.634Z,10.12
2022-10-04T15:26:34.575Z,10.13
2022-10-04T15:27:52.758Z,10.12
2022-10-04T15:28:59.761Z,10.11
2022-10-04T15:30:29.062Z,10.11
2022-10-04T15:32:12.051Z,10.06
2022-10-04T15:33:21.867Z,10.07
2022-10-04T15:34:47.614Z,10.07
2022-10-04T15:36:18.169Z,10.06
2022-10-04T15:37:27.956Z,10.05
2022-10-04T15:38:53.148Z,10.00
2022-10-04T15:40:37.124Z,10.04
2022-10-04T15:43:27.349Z,10.02
2022-10-04T15:44:45.920Z,10.00
2022-10-04T15:46:06.221Z,10.01
2022-10-04T15:47:27.103Z,9.97
2022-10-04T15:48:38.227Z,9.97
2022-10-04T15:50:11.170Z,9.96
2022-10-04T15:51:37.459Z,9.95
2022-10-04T15:52:47.355Z,9.94
2022-10-04T15:54:12.230Z,9.94
2022-10-04T15:55:38.484Z,9.94
2022-10-04T15:56:59.448Z,9.92
2022-10-04T15:58:19.411Z,9.91
2022-10-04T15:59:28.954Z,9.91
2022-10-04T16:01:03.333Z,9.90
2022-10-04T16:02:31.303Z,9.89
2022-10-04T16:03:58.576Z,9.89
2022-10-04T16:05:20.445Z,9.87
2022-10-04T16:06:37.958Z,9.88
2022-10-04T16:08:03.051Z,9.87
2022-10-04T16:09:35.657Z,9.87
2022-10-04T16:11:04.033Z,9.86
2022-10-04T16:12:30.567Z,9.85
2022-10-04T16:13:58.358Z,9.85
2022-10-04T16:15:21.572Z,9.82
2022-10-04T16:16:38.961Z,9.83
2022-10-04T16:17:48.594Z,9.80
2022-10-04T16:19:15.928Z,9.80
2022-10-04T16:20:31.651Z,9.80
2022-10-04T16:21:56.787Z,9.81
2022-10-04T16:23:29.539Z,9.79
2022-10-04T16:24:47.825Z,9.82
2022-10-04T16:25:57.653Z,9.80
2022-10-04T16:27:10.082Z,9.80
2022-10-04T16:28:49.807Z,9.80
2022-10-04T16:30:25.580Z,9.80
2022-10-04T16:31:28.573Z,9.80
2022-10-04T16:32:40.363Z,9.79
2022-10-04T16:46:41.749Z,9.62
2022-10-04T16:47:54.339Z,9.62
2022-10-04T16:49:03.000Z,9.61
2022-10-04T16:50:09.870Z,9.62
2022-10-04T16:51:19.731Z,9.64
2022-10-04T16:52:32.563Z,9.64
2022-10-04T16:54:00.757Z,9.70
2022-10-04T16:55:22.886Z,9.70
2022-10-04T16:56:34.447Z,9.70
2022-10-04T16:57:39.779Z,9.72
2022-10-04T16:59:07.114Z,9.71
2022-10-04T17:00:37.089Z,9.71
2022-10-04T17:01:48.823Z,9.69
2022-10-04T17:03:10.405Z,9.69
2022-10-04T17:04:38.607Z,9.69
2022-10-04T17:05:53.907Z,9.71
2022-10-04T17:07:22.032Z,9.71
2022-10-04T17:09:39.930Z,9.69
2022-10-04T17:11:11.020Z,9.69
2022-10-04T17:11:35.223Z,9.71
2022-10-04T17:12:40.144Z,9.69
2022-10-04T17:14:06.209Z,9.67
2022-10-04T17:15:16.237Z,9.69
2022-10-04T17:16:41.857Z,9.68
2022-10-04T17:17:54.555Z,9.50
2022-10-04T17:19:19.413Z,9.69
2022-10-04T17:20:47.794Z,9.69
2022-10-04T17:22:12.876Z,9.68
2022-10-04T17:23:25.386Z,9.66
2022-10-04T17:24:43.786Z,9.65
2022-10-04T17:26:13.876Z,9.65
2022-10-04T17:27:46.272Z,9.64
2022-10-04T17:28:59.047Z,9.64
2022-10-04T17:30:17.837Z,9.63
2022-10-04T17:31:33.831Z,9.63
2022-10-04T17:33:00.378Z,9.63
2022-10-04T17:34:23.608Z,9.63
2022-10-04T17:35:49.790Z,9.62
2022-10-04T17:37:00.970Z,9.62
2022-10-04T17:38:18.381Z,9.60
2022-10-04T17:39:40.351Z,9.60
2022-10-04T17:40:47.324Z,9.60
2022-10-04T17:42:04.542Z,9.61
2022-10-04T17:43:26.328Z,9.62
2022-10-04T17:44:51.187Z,9.45
2022-10-04T17:46:07.296Z,9.61
2022-10-04T17:47:24.306Z,9.62
2022-10-04T17:48:34.227Z,9.62
2022-10-04T17:49:59.245Z,9.62
2022-10-04T17:51:15.187Z,9.66
2022-10-04T17:52:26.061Z,9.66
2022-10-04T17:53:34.455Z,9.64
2022-10-04T17:54:47.451Z,9.64
2022-10-04T17:55:58.612Z,9.65
2022-10-04T17:57:08.394Z,9.66
2022-10-04T17:58:24.628Z,9.66
2022-10-04T17:59:31.762Z,9.66
2022-10-04T18:00:53.651Z,9.69
2022-10-04T18:02:06.522Z,9.69
2022-10-04T18:03:25.596Z,9.72
2022-10-04T18:04:32.665Z,9.71
2022-10-04T18:05:45.153Z,9.71
2022-10-04T18:06:53.823Z,9.71
2022-10-04T18:08:04.438Z,9.71
2022-10-04T18:09:19.556Z,9.71
2022-10-04T18:10:39.310Z,9.72
2022-10-04T18:11:51.321Z,9.74
2022-10-04T18:13:00.543Z,9.74
2022-10-04T18:14:13.418Z,9.75
2022-10-04T18:15:23.065Z,9.77
2022-10-04T18:16:32.719Z,9.78
2022-10-04T18:17:42.469Z,9.78
2022-10-04T18:18:46.977Z,9.78
2022-10-04T18:20:02.438Z,9.78
2022-10-04T18:21:09.684Z,9.80
2022-10-04T18:22:16.333Z,9.78
2022-10-04T18:23:26.282Z,9.81
2022-10-04T18:25:00.966Z,9.82
2022-10-04T18:25:49.146Z,9.83
2022-10-04T18:27:03.923Z,9.82
2022-10-04T18:28:15.141Z,9.82
2022-10-04T18:29:22.203Z,9.82
2022-10-04T18:30:26.436Z,9.84
2022-10-04T18:31:41.447Z,9.84
2022-10-04T18:32:54.561Z,9.83
2022-10-04T18:34:14.944Z,9.83
2022-10-04T18:35:32.417Z,9.84
2022-10-04T18:36:59.784Z,9.84
2022-10-04T18:38:12.387Z,9.81
2022-10-04T18:39:19.327Z,9.81
2022-10-04T18:40:27.857Z,9.81
2022-10-04T18:41:32.141Z,9.81
2022-10-04T18:43:01.302Z,9.82
2022-10-04T18:46:49.319Z,9.79
2022-10-04T18:47:57.308Z,9.81
2022-10-04T18:49:43.352Z,9.80
2022-10-04T18:50:44.012Z,9.81
2022-10-04T18:52:14.761Z,9.82
2022-10-04T18:53:42.598Z,9.81
2022-10-04T18:57:06.058Z,9.79
2022-10-04T18:59:09.322Z,9.79
2022-10-04T19:00:10.556Z,9.80
2022-10-04T19:01:58.835Z,9.78
2022-10-04T19:03:04.231Z,9.81
2022-10-04T19:04:14.883Z,9.81
2022-10-04T19:05:27.016Z,9.81
2022-10-04T19:24:40.678Z,9.32
2022-10-04T19:26:30.161Z,9.32
2022-10-04T19:28:36.537Z,9.41
2022-10-04T19:30:24.813Z,9.29